Time;durP1;ratioP1;P1;durP2;ratioP2;P2;SDS_P1;SDS_P2;PMS_P1;PMS_P2;Temp;Humidity;BMP_temperature;BMP_pressure;BME280_temperature;BME280_humidity;BME280_pressure;Samples;Min_cycle;Max_cycle;Signal;HPM_P1;HPM_P2
2022/11/19 00:00:51;;;;;;;3.97;2.97;;;0.50;99.90;;;;;;6293529;22;20345;-56
2022/11/19 00:03:18;;;;;;;4.57;2.97;;;0.50;99.90;;;;;;6168860;22;20030;-56
2022/11/19 00:05:49;;;;;;;10.75;2.67;;;0.40;99.90;;;;;;6294296;22;20023;-56
2022/11/19 00:08:19;;;;;;;5.85;2.97;;;0.40;99.90;;;;;;6292544;22;20029;-56
2022/11/19 00:10:48;;;;;;;4.75;3.22;;;0.40;99.90;;;;;;6293593;22;20112;-56
2022/11/19 00:13:14;;;;;;;4.88;3.00;;;0.30;99.90;;;;;;6294015;22;20023;-56
2022/11/19 00:15:40;;;;;;;3.63;2.75;;;0.30;99.90;;;;;;6293806;22;20489;-57
2022/11/19 00:18:06;;;;;;;4.93;2.88;;;0.30;99.90;;;;;;6293558;22;20112;-56
2022/11/19 00:20:33;;;;;;;5.80;3.10;;;0.30;99.90;;;;;;6294359;22;20125;-56
2022/11/19 00:22:59;;;;;;;4.95;3.88;;;0.30;99.90;;;;;;6294163;22;20447;-57
2022/11/19 00:25:27;;;;;;;6.43;2.80;;;0.30;99.90;;;;;;6294769;22;20081;-56
2022/11/19 00:27:55;;;;;;;4.28;3.03;;;0.90;99.90;;;;;;6294145;22;20058;-57
2022/11/19 00:30:21;;;;;;;4.57;3.50;;;0.30;99.90;;;;;;6294859;22;20023;-56
2022/11/19 00:32:47;;;;;;;4.82;3.28;;;0.20;99.90;;;;;;6138717;22;20025;-57
2022/11/19 00:35:13;;;;;;;6.45;3.45;;;0.20;99.90;;;;;;6139483;22;20536;-56
2022/11/19 00:37:39;;;;;;;22.02;4.78;;;0.20;99.90;;;;;;6295128;22;20552;-57
2022/11/19 00:40:07;;;;;;;4.35;3.10;;;0.10;99.90;;;;;;6261491;22;20019;-56
2022/11/19 00:42:34;;;;;;;4.53;3.13;;;0.10;99.90;;;;;;6294621;22;20031;-56
2022/11/19 00:44:59;;;;;;;5.18;3.25;;;0.10;99.90;;;;;;6139373;22;20017;-56
2022/11/19 00:47:25;;;;;;;5.43;3.58;;;0.00;99.90;;;;;;6139403;22;20030;-56
2022/11/19 00:49:51;;;;;;;4.15;3.45;;;0.00;99.90;;;;;;6138996;22;20352;-56
2022/11/19 00:52:17;;;;;;;6.82;3.15;;;-0.10;99.90;;;;;;6139377;23;20529;-57
2022/11/19 00:57:13;;;;;;;5.32;3.35;;;-0.10;99.90;;;;;;6294074;22;20108;-57
2022/11/19 00:59:38;;;;;;;4.90;3.28;;;-0.10;99.90;;;;;;6294476;22;20458;-58
2022/11/19 01:02:04;;;;;;;3.72;3.05;;;-0.10;99.90;;;;;;6294444;22;20102;-56
2022/11/19 01:04:30;;;;;;;4.28;3.45;;;-0.20;99.90;;;;;;6241395;22;20498;-56
2022/11/19 01:06:55;;;;;;;5.10;3.78;;;-0.20;99.90;;;;;;6293973;22;20038;-56
2022/11/19 01:09:21;;;;;;;4.18;3.13;;;-0.10;99.90;;;;;;6294130;22;20141;-61
2022/11/19 01:11:47;;;;;;;3.80;2.90;;;-0.20;99.90;;;;;;6294329;22;20598;-57
2022/11/19 01:14:13;;;;;;;8.57;3.90;;;-0.20;99.90;;;;;;6294365;22;20033;-61
2022/11/19 01:16:40;;;;;;;4.95;3.22;;;-0.20;99.90;;;;;;6294523;22;20105;-61
2022/11/19 01:19:09;;;;;;;6.40;3.70;;;-0.20;99.90;;;;;;6294923;22;20024;-59
2022/11/19 01:21:35;;;;;;;6.28;4.25;;;-0.20;99.90;;;;;;6294794;22;20112;-60
2022/11/19 01:24:02;;;;;;;5.35;3.25;;;-0.20;99.90;;;;;;6294990;22;20019;-59
2022/11/19 01:26:28;;;;;;;4.53;2.95;;;-0.20;99.90;;;;;;6295103;22;20034;-56
2022/11/19 01:28:54;;;;;;;5.40;3.63;;;-0.20;99.90;;;;;;6293775;22;20457;-58
2022/11/19 01:31:22;;;;;;;8.90;3.78;;;-0.20;99.90;;;;;;6294731;22;20050;-57
2022/11/19 01:33:49;;;;;;;6.93;4.20;;;-0.20;99.90;;;;;;6294469;22;20023;-59
2022/11/19 01:36:18;;;;;;;6.90;4.32;;;-0.20;99.90;;;;;;6294690;22;20031;-58
2022/11/19 01:38:49;;;;;;;5.15;2.90;;;-0.20;99.90;;;;;;6295154;22;20346;-59
2022/11/19 01:41:20;;;;;;;6.47;3.92;;;-0.20;99.90;;;;;;6296297;22;20031;-57
2022/11/19 01:43:53;;;;;;;4.53;3.33;;;-0.20;99.90;;;;;;6295931;22;20330;-57
2022/11/19 01:46:21;;;;;;;5.80;3.53;;;-0.30;99.90;;;;;;6140938;22;20033;-57
2022/11/19 01:48:58;;;;;;;7.07;3.22;;;-0.20;99.90;;;;;;6139894;22;20096;-59
2022/11/19 01:54:20;;;;;;;5.53;3.55;;;-0.30;99.90;;;;;;6139856;23;20044;-57
2022/11/19 01:59:16;;;;;;;4.18;3.20;;;-0.40;99.90;;;;;;6232423;22;20133;-56
2022/11/19 02:01:43;;;;;;;5.47;3.13;;;-0.40;99.90;;;;;;6268732;22;20034;-57
2022/11/19 02:04:10;;;;;;;5.13;3.40;;;-0.40;99.90;;;;;;6140433;22;20033;-57
2022/11/19 02:06:36;;;;;;;5.68;3.50;;;-0.50;99.90;;;;;;6176813;22;20102;-57
2022/11/19 02:09:02;;;;;;;6.80;3.60;;;-0.50;99.90;;;;;;6294880;22;20060;-56
2022/11/19 02:11:47;;;;;;;4.35;3.47;;;-0.50;99.90;;;;;;6296330;22;20031;-56
2022/11/19 02:14:33;;;;;;;5.25;3.47;;;-0.60;99.90;;;;;;6296116;22;20378;-56
2022/11/19 02:17:15;;;;;;;4.57;3.08;;;-0.60;99.90;;;;;;6296193;22;20027;-57
2022/11/19 02:19:47;;;;;;;7.25;3.03;;;-0.60;99.90;;;;;;6296540;22;20055;-56
2022/11/19 02:22:37;;;;;;;7.28;3.80;;;-0.70;99.90;;;;;;6296126;22;20048;-56
2022/11/19 02:25:37;;;;;;;5.15;3.63;;;-0.70;99.90;;;;;;6295521;22;20437;-56
2022/11/19 02:28:28;;;;;;;6.47;4.03;;;-0.80;99.90;;;;;;6296310;22;20405;-56
2022/11/19 02:31:04;;;;;;;5.85;3.72;;;-0.80;99.90;;;;;;6267707;22;20353;-56
2022/11/19 02:33:47;;;;;;;7.45;3.88;;;-0.90;99.90;;;;;;6296507;22;20019;-56
2022/11/19 02:36:25;;;;;;;6.45;3.75;;;-0.90;99.90;;;;;;6295977;22;20479;-56
2022/11/19 02:39:12;;;;;;;6.35;3.88;;;-0.90;99.90;;;;;;6295552;22;20448;-56
2022/11/19 02:41:43;;;;;;;7.93;4.28;;;-0.90;99.90;;;;;;6268291;22;20023;-56
2022/11/19 02:47:16;;;;;;;5.43;3.83;;;-1.00;99.90;;;;;;6268576;22;20077;-56
2022/11/19 02:52:09;;;;;;;9.15;3.92;;;-1.10;99.90;;;;;;6295956;22;20035;-56
2022/11/19 02:54:34;;;;;;;5.90;4.40;;;-1.10;99.90;;;;;;6295792;22;20027;-56
2022/11/19 02:57:01;;;;;;;6.05;4.03;;;-1.10;99.90;;;;;;6295206;22;20023;-55
2022/11/19 03:04:59;;;;;;;9.20;5.07;;;-1.10;99.90;;;;;;6295494;22;20445;-56
2022/11/19 03:07:25;;;;;;;5.55;3.45;;;-1.20;99.90;;;;;;6295461;22;20031;-56
2022/11/19 03:09:57;;;;;;;7.45;4.20;;;-1.10;99.90;;;;;;6294873;22;20030;-56
2022/11/19 03:12:47;;;;;;;6.15;4.28;;;-1.20;99.90;;;;;;6296058;22;20512;-56
2022/11/19 03:18:09;;;;;;;7.15;4.07;;;-1.20;99.90;;;;;;6139621;22;20569;-56
2022/11/19 03:20:40;;;;;;;5.57;4.32;;;-1.20;99.90;;;;;;6140051;23;20067;-56
2022/11/19 03:23:18;;;;;;;5.85;3.75;;;-0.80;99.90;;;;;;6138663;22;20029;-56
2022/11/19 03:26:23;;;;;;;7.85;3.72;;;-1.20;99.90;;;;;;6139391;23;20059;-56
2022/11/19 03:28:51;;;;;;;4.85;3.70;;;-1.20;99.90;;;;;;6247129;22;20091;-56
2022/11/19 03:31:20;;;;;;;5.78;3.90;;;-1.20;99.90;;;;;;6295566;22;20516;-56
2022/11/19 03:33:54;;;;;;;6.03;3.30;;;-1.30;99.90;;;;;;6295607;22;20027;-56
2022/11/19 03:36:25;;;;;;;;;;;-1.30;99.90;;;;;;6295994;22;20027;-56
2022/11/19 03:38:54;;;;;;;9.48;4.72;;;-1.30;99.90;;;;;;6294485;22;19950;-56
2022/11/19 03:41:23;;;;;;;7.32;4.75;;;-1.30;99.90;;;;;;6288153;22;20020;-56
2022/11/19 03:44:03;;;;;;;7.13;4.43;;;-1.30;99.90;;;;;;6290621;22;20031;-55
2022/11/19 03:46:31;;;;;;;7.50;4.20;;;-1.30;99.90;;;;;;6295889;22;20023;-56
2022/11/19 03:48:58;;;;;;;6.95;3.70;;;-1.40;99.90;;;;;;6295153;22;20384;-55
2022/11/19 03:51:47;;;;;;;6.45;3.63;;;-1.30;99.90;;;;;;6246400;22;1110690;-56
2022/11/19 03:54:13;;;;;;;6.93;3.53;;;-1.30;99.90;;;;;;6294472;22;20023;-56
2022/11/19 03:56:40;;;;;;;6.78;4.07;;;-1.40;99.90;;;;;;6295529;22;20019;-56
2022/11/19 03:59:09;;;;;;;5.57;4.68;;;-1.40;99.90;;;;;;6266274;22;20031;-55
2022/11/19 04:01:35;;;;;;;4.88;3.97;;;-1.40;99.90;;;;;;6294885;22;20031;-56
2022/11/19 04:09:13;;;;;;;7.63;4.43;;;-1.40;99.90;;;;;;6267021;22;20030;-56
2022/11/19 04:11:39;;;;;;;6.40;3.90;;;-1.50;99.90;;;;;;6294641;22;20023;-56
2022/11/19 04:14:04;;;;;;;8.13;4.32;;;-2.10;99.90;;;;;;6267869;22;20019;-55
2022/11/19 04:16:30;;;;;;;6.13;3.90;;;-1.50;99.90;;;;;;6295575;22;20770;-56
2022/11/19 04:18:56;;;;;;;4.78;3.72;;;-1.50;99.90;;;;;;6294714;22;20077;-56
2022/11/19 04:21:21;;;;;;;5.60;4.03;;;-1.50;99.90;;;;;;6295760;22;20023;-56
2022/11/19 04:23:47;;;;;;;5.28;4.25;;;-1.50;99.90;;;;;;6294018;22;20082;-55
2022/11/19 04:26:13;;;;;;;5.78;3.65;;;-1.50;99.90;;;;;;6294799;22;20019;-56
2022/11/19 04:28:38;;;;;;;5.28;3.95;;;-1.60;99.90;;;;;;6295279;22;20028;-57
2022/11/19 04:31:04;;;;;;;4.90;3.85;;;-1.50;99.90;;;;;;6294391;22;20114;-56
2022/11/19 04:33:30;;;;;;;5.95;2.95;;;-1.60;99.90;;;;;;6294852;22;20078;-56
2022/11/19 04:35:55;;;;;;;7.03;3.80;;;-1.60;99.90;;;;;;6281327;22;20385;-56
2022/11/19 04:38:21;;;;;;;6.57;4.05;;;-1.60;99.90;;;;;;6294744;22;20438;-56
2022/11/19 04:40:47;;;;;;;7.95;4.47;;;-1.60;99.90;;;;;;6293900;22;20374;-54
2022/11/19 04:43:12;;;;;;;6.28;4.07;;;-1.70;99.90;;;;;;6295135;22;20527;-56
2022/11/19 04:45:38;;;;;;;5.93;3.97;;;-1.70;99.90;;;;;;6294760;22;20445;-56
2022/11/19 04:48:04;;;;;;;8.25;4.32;;;-1.70;99.90;;;;;;6294060;22;20031;-56
2022/11/19 04:50:29;;;;;;;7.38;4.50;;;-1.70;99.90;;;;;;6294062;22;20023;-56
2022/11/19 04:52:55;;;;;;;7.63;4.03;;;-1.70;99.90;;;;;;6293741;22;20051;-55
2022/11/19 04:55:21;;;;;;;6.15;4.40;;;-1.70;99.90;;;;;;6294620;22;20031;-56
2022/11/19 04:57:50;;;;;;;9.07;4.13;;;-1.80;99.90;;;;;;6294622;22;20367;-56
2022/11/19 05:00:16;;;;;;;7.78;4.35;;;-1.80;99.90;;;;;;6295057;22;20080;-56
2022/11/19 05:02:42;;;;;;;5.53;3.75;;;-1.80;99.90;;;;;;6294179;22;20024;-56
2022/11/19 05:05:08;;;;;;;6.10;4.03;;;-1.80;99.90;;;;;;6246082;22;20023;-56
2022/11/19 05:07:34;;;;;;;11.27;4.38;;;-1.90;99.90;;;;;;6287099;22;20023;-56
2022/11/19 05:10:00;;;;;;;5.50;3.72;;;-1.80;99.90;;;;;;6294455;22;20381;-56
2022/11/19 05:12:26;;;;;;;7.75;4.65;;;-1.90;99.90;;;;;;6266733;22;20088;-56
2022/11/19 05:14:51;;;;;;;7.78;4.53;;;-1.90;99.90;;;;;;6295721;22;20084;-56
2022/11/19 05:17:17;;;;;;;7.95;4.70;;;-1.90;99.90;;;;;;6295659;22;20419;-56
2022/11/19 05:19:43;;;;;;;6.97;4.15;;;-1.90;99.90;;;;;;6296504;22;20011;-56
2022/11/19 05:22:08;;;;;;;6.32;4.63;;;-1.90;99.90;;;;;;6139613;22;20022;-56
2022/11/19 05:24:34;;;;;;;6.80;4.25;;;-1.90;99.90;;;;;;6139974;23;20026;-58
2022/11/19 05:27:00;;;;;;;7.97;4.82;;;-1.90;99.90;;;;;;6283222;22;20026;-57
2022/11/19 05:29:25;;;;;;;8.75;5.00;;;-1.90;99.90;;;;;;6297159;22;20023;-57
2022/11/19 05:31:51;;;;;;;10.85;6.00;;;-2.00;99.90;;;;;;6296285;22;20026;-57
2022/11/19 05:34:17;;;;;;;9.48;5.20;;;-2.00;99.90;;;;;;6242811;22;20498;-57
2022/11/19 05:36:42;;;;;;;8.30;5.35;;;-2.00;99.90;;;;;;6139653;23;20039;-57
2022/11/19 05:39:08;;;;;;;7.30;4.88;;;-0.70;99.90;;;;;;6139411;22;20021;-57
2022/11/19 05:41:34;;;;;;;6.32;4.65;;;-2.00;99.90;;;;;;6268682;22;20031;-58
2022/11/19 05:44:02;;;;;;;7.10;4.22;;;-2.10;99.90;;;;;;6296764;22;20023;-59
2022/11/19 05:46:27;;;;;;;7.13;5.55;;;-2.00;99.90;;;;;;6140679;23;20448;-57
2022/11/19 05:48:53;;;;;;;11.05;5.20;;;-2.10;99.90;;;;;;6138930;23;20026;-57
2022/11/19 05:51:19;;;;;;;5.63;4.20;;;-2.00;99.90;;;;;;6139769;23;20025;-57
2022/11/19 05:53:49;;;;;;;10.05;4.45;;;-2.10;99.90;;;;;;6140163;23;20094;-59
2022/11/19 05:56:14;;;;;;;7.65;4.70;;;-2.00;99.90;;;;;;6268175;22;20084;-59
2022/11/19 05:58:40;;;;;;;7.53;4.82;;;-2.00;99.90;;;;;;6296319;22;20031;-57
2022/11/19 06:01:05;;;;;;;6.80;4.43;;;-2.00;99.90;;;;;;6295916;22;20093;-58
2022/11/19 06:03:31;;;;;;;6.00;4.80;;;-2.00;99.90;;;;;;6295747;22;20346;-58
2022/11/19 06:05:57;;;;;;;6.80;4.90;;;-2.10;99.90;;;;;;6242313;22;20067;-57
2022/11/19 06:08:23;;;;;;;8.95;5.35;;;-2.10;99.90;;;;;;6177838;22;20027;-57
2022/11/19 06:10:48;;;;;;;7.05;4.78;;;-2.10;99.90;;;;;;6295844;22;20717;-57
2022/11/19 06:13:14;;;;;;;7.38;4.95;;;-2.10;99.90;;;;;;6268828;22;20030;-57
2022/11/19 06:15:40;;;;;;;7.32;4.85;;;-2.10;99.90;;;;;;6140636;23;20062;-57
2022/11/19 06:18:05;;;;;;;6.13;4.18;;;-2.10;99.90;;;;;;6139429;22;20450;-57
2022/11/19 06:20:31;;;;;;;7.28;4.07;;;-2.10;99.90;;;;;;6218075;22;20412;-56
2022/11/19 06:22:57;;;;;;;5.80;4.57;;;-1.40;99.90;;;;;;6139962;22;20133;-59
2022/11/19 06:25:23;;;;;;;9.15;4.25;;;-2.10;99.90;;;;;;6139625;23;20028;-58
2022/11/19 06:27:49;;;;;;;7.07;5.03;;;-2.10;99.90;;;;;;6295794;22;20165;-59
2022/11/19 06:30:15;;;;;;;7.38;4.30;;;-2.10;99.90;;;;;;6295773;22;20098;-57
2022/11/19 06:32:41;;;;;;;8.73;4.28;;;-2.10;99.90;;;;;;6295729;22;20065;-57
2022/11/19 06:35:08;;;;;;;7.93;4.18;;;-2.20;99.90;;;;;;6294899;22;20034;-56
2022/11/19 06:37:33;;;;;;;7.05;4.43;;;-2.20;99.90;;;;;;6296107;22;20085;-59
2022/11/19 06:39:59;;;;;;;9.23;5.93;;;-2.20;99.90;;;;;;6295565;22;20023;-60
2022/11/19 06:42:37;;;;;;;8.13;5.22;;;-2.20;99.90;;;;;;6295468;22;20023;-59
2022/11/19 06:45:11;;;;;;;6.07;4.22;;;-2.20;99.90;;;;;;6267508;22;20406;-60
2022/11/19 06:47:38;;;;;;;6.78;4.40;;;-2.30;99.90;;;;;;6295024;22;20023;-58
2022/11/19 06:50:05;;;;;;;7.47;4.90;;;-2.20;99.90;;;;;;6267885;22;20453;-57
2022/11/19 06:52:31;;;;;;;7.55;4.97;;;-2.20;99.90;;;;;;6296071;22;20073;-56
2022/11/19 06:54:56;;;;;;;7.20;4.68;;;-2.20;99.90;;;;;;6295360;22;20019;-56
2022/11/19 06:57:22;;;;;;;9.20;4.75;;;-2.20;99.90;;;;;;6293243;22;20027;-56
2022/11/19 06:59:48;;;;;;;7.90;5.25;;;-2.30;99.90;;;;;;6287876;22;20039;-55
2022/11/19 07:02:14;;;;;;;9.25;5.32;;;-2.20;99.90;;;;;;6295223;22;20452;-56
2022/11/19 07:04:39;;;;;;;7.03;3.92;;;-2.20;99.90;;;;;;6294160;22;20122;-56
2022/11/19 07:07:05;;;;;;;7.22;4.88;;;-2.30;99.90;;;;;;6294089;22;20088;-56
2022/11/19 07:09:31;;;;;;;12.07;5.45;;;-2.30;99.90;;;;;;6295478;22;20031;-56
2022/11/19 07:11:56;;;;;;;7.60;4.50;;;-2.30;99.90;;;;;;6294830;22;20102;-55
2022/11/19 07:14:22;;;;;;;8.52;5.53;;;-2.20;99.90;;;;;;6139101;23;20049;-56
2022/11/19 07:16:48;;;;;;;9.90;6.22;;;-2.30;99.90;;;;;;6137370;22;20028;-56
2022/11/19 07:19:14;;;;;;;5.82;4.25;;;-2.20;99.90;;;;;;6293857;22;20035;-56
2022/11/19 07:21:40;;;;;;;7.55;4.85;;;-2.20;99.90;;;;;;6290484;22;20019;-56
2022/11/19 07:24:07;;;;;;;7.05;4.57;;;-2.20;99.90;;;;;;6292356;22;20024;-55
2022/11/19 07:26:35;;;;;;;8.75;5.70;;;-2.20;99.90;;;;;;6292826;22;20102;-56
2022/11/19 07:29:03;;;;;;;8.35;5.03;;;-2.20;99.90;;;;;;6291057;22;20631;-55
2022/11/19 07:31:29;;;;;;;10.23;6.30;;;-2.20;99.90;;;;;;6292124;22;20031;-56
2022/11/19 07:33:54;;;;;;;6.35;4.90;;;-2.10;99.90;;;;;;6292305;22;20027;-56
2022/11/19 07:36:20;;;;;;;8.85;5.47;;;-2.10;99.90;;;;;;6292310;22;20031;-56
2022/11/19 07:38:49;;;;;;;6.72;4.90;;;-2.10;99.90;;;;;;6292009;22;20019;-56
2022/11/19 07:43:59;;;;;;;;;;;-2.10;99.90;;;;;;6264395;22;20030;-56
2022/11/19 07:46:25;;;;;;;9.40;5.40;;;-2.00;99.90;;;;;;6283876;22;20358;-56
2022/11/19 07:48:52;;;;;;;7.63;5.22;;;-2.10;99.90;;;;;;6287057;22;20397;-56
2022/11/19 07:51:18;;;;;;;8.63;5.30;;;-2.10;99.90;;;;;;6292667;22;20488;-56
2022/11/19 07:53:48;;;;;;;9.32;5.35;;;-2.00;99.90;;;;;;6292043;22;20047;-56
2022/11/19 07:56:14;;;;;;;8.20;5.65;;;-1.90;99.90;;;;;;6237624;22;20025;-56
2022/11/19 07:58:40;;;;;;;9.38;6.35;;;-1.90;99.90;;;;;;6136076;22;20484;-56
2022/11/19 08:01:11;;;;;;;9.82;6.10;;;-1.90;99.90;;;;;;6156885;22;20040;-57
2022/11/19 08:03:37;;;;;;;8.32;5.15;;;-1.80;99.90;;;;;;6292875;22;20390;-56
2022/11/19 08:06:04;;;;;;;7.05;4.68;;;-1.00;99.90;;;;;;6265431;22;20038;-55
2022/11/19 08:08:31;;;;;;;9.35;4.72;;;-1.80;99.90;;;;;;6240534;22;1198379;-56
2022/11/19 08:10:59;;;;;;;8.43;5.28;;;-1.70;99.90;;;;;;6291949;22;20058;-56
2022/11/19 08:13:26;;;;;;;7.55;5.38;;;-1.60;99.90;;;;;;6278468;22;20070;-56
2022/11/19 08:15:57;;;;;;;7.95;5.13;;;-1.60;99.90;;;;;;6137736;22;20043;-56
2022/11/19 08:18:23;;;;;;;9.20;5.70;;;-1.60;99.90;;;;;;6215539;22;20023;-56
2022/11/19 08:20:48;;;;;;;7.68;5.63;;;-1.60;99.90;;;;;;6292312;22;20037;-55
2022/11/19 08:23:14;;;;;;;10.40;5.78;;;-1.50;99.90;;;;;;6292887;22;20027;-56
2022/11/19 08:25:43;;;;;;;9.00;5.90;;;-1.50;99.90;;;;;;6265713;22;20443;-56
2022/11/19 08:28:09;;;;;;;10.43;6.38;;;-1.50;99.90;;;;;;6292301;22;20043;-56
2022/11/19 08:30:35;;;;;;;9.15;5.82;;;-1.50;99.90;;;;;;6293339;22;20622;-56
2022/11/19 08:33:01;;;;;;;8.57;5.85;;;-1.40;99.90;;;;;;6292201;22;20117;-56
2022/11/19 08:35:26;;;;;;;10.68;5.65;;;-1.40;99.90;;;;;;6289623;22;20027;-56
2022/11/19 08:37:52;;;;;;;8.98;5.40;;;-1.40;99.90;;;;;;6262949;22;20497;-55
2022/11/19 08:40:18;;;;;;;12.20;6.35;;;-1.40;99.90;;;;;;6291623;22;20342;-56
2022/11/19 08:45:13;;;;;;;10.48;5.75;;;-1.30;99.90;;;;;;6291771;22;20038;-56
2022/11/19 08:47:38;;;;;;;6.32;4.82;;;-1.20;99.90;;;;;;6290458;22;20031;-56
2022/11/19 08:50:04;;;;;;;10.27;5.72;;;-1.10;99.90;;;;;;6289443;22;20525;-55
2022/11/19 08:52:30;;;;;;;9.48;5.30;;;-1.10;99.90;;;;;;6291892;22;20499;-56
2022/11/19 08:54:55;;;;;;;6.93;4.65;;;-1.00;99.90;;;;;;6290572;22;20104;-55
2022/11/19 08:57:22;;;;;;;7.15;4.82;;;-1.00;99.90;;;;;;6290626;22;20954;-56
2022/11/19 08:59:47;;;;;;;9.65;5.90;;;-0.90;99.90;;;;;;6290426;22;20072;-55
2022/11/19 09:02:13;;;;;;;9.68;6.18;;;-0.90;99.90;;;;;;6262991;22;20302;-56
2022/11/19 09:04:40;;;;;;;8.45;5.15;;;-0.10;99.90;;;;;;6264462;22;20023;-56
2022/11/19 09:07:06;;;;;;;6.68;4.75;;;-0.80;99.90;;;;;;6288725;22;20027;-56
2022/11/19 09:09:31;;;;;;;6.68;4.95;;;-0.70;99.90;;;;;;6289255;22;20026;-56
2022/11/19 09:11:57;;;;;;;6.85;4.50;;;-0.60;99.90;;;;;;6288289;22;20534;-56
2022/11/19 09:14:23;;;;;;;9.75;5.45;;;-0.60;99.90;;;;;;6289229;22;20023;-56
2022/11/19 09:16:48;;;;;;;8.38;5.57;;;-0.50;99.90;;;;;;6199715;22;20358;-56
2022/11/19 09:19:14;;;;;;;10.73;5.55;;;-0.50;99.90;;;;;;6132991;22;20104;-56
2022/11/19 09:21:40;;;;;;;7.95;4.90;;;-0.30;99.90;;;;;;6133455;22;20352;-56
2022/11/19 09:24:05;;;;;;;9.32;6.20;;;-0.30;99.90;;;;;;6280571;22;20057;-56
2022/11/19 09:26:31;;;;;;;7.15;5.00;;;-0.30;99.90;;;;;;6287977;22;20023;-57
2022/11/19 09:28:57;;;;;;;10.80;6.60;;;-0.20;99.90;;;;;;6288468;22;20027;-56
2022/11/19 09:31:22;;;;;;;8.85;5.15;;;-0.10;99.90;;;;;;6289591;22;20023;-56
2022/11/19 09:33:53;;;;;;;10.25;6.18;;;-0.10;99.90;;;;;;6286433;22;20432;-55
2022/11/19 09:36:19;;;;;;;10.00;5.38;;;0.00;99.90;;;;;;6288631;22;20408;-56
2022/11/19 09:38:48;;;;;;;9.00;4.97;;;0.10;99.90;;;;;;6288295;22;20107;-56
2022/11/19 09:41:42;;;;;;;8.07;5.38;;;0.80;99.90;;;;;;6289214;22;20023;-56
2022/11/19 09:44:08;;;;;;;7.78;5.03;;;0.10;99.90;;;;;;6289425;22;20096;-55
2022/11/19 09:46:47;;;;;;;11.07;4.75;;;0.10;99.90;;;;;;6262484;22;20027;-56
2022/11/19 09:49:17;;;;;;;7.30;4.50;;;0.20;99.90;;;;;;6291333;22;20130;-56
2022/11/19 09:51:47;;;;;;;9.65;5.75;;;0.30;99.90;;;;;;6291431;22;20465;-56
2022/11/19 09:54:19;;;;;;;8.52;5.10;;;0.40;99.90;;;;;;6290550;22;20027;-56
2022/11/19 09:56:52;;;;;;;6.65;4.18;;;0.40;99.90;;;;;;6290381;22;20030;-56
2022/11/19 09:59:34;;;;;;;7.63;5.00;;;0.50;99.90;;;;;;6136096;22;20029;-56
2022/11/19 10:01:59;;;;;;;8.52;4.82;;;0.50;99.90;;;;;;6135149;22;20033;-56
2022/11/19 10:04:28;;;;;;;6.15;4.78;;;0.70;99.90;;;;;;6177209;22;20032;-57
2022/11/19 10:07:19;;;;;;;7.53;5.10;;;0.80;99.90;;;;;;6291264;22;20052;-55
2022/11/19 10:10:12;;;;;;;8.60;5.63;;;0.90;99.90;;;;;;6292553;22;20092;-58
2022/11/19 10:12:47;;;;;;;7.63;5.03;;;0.90;99.90;;;;;;6136636;22;20044;-57
2022/11/19 10:15:31;;;;;;;7.30;4.68;;;1.20;99.90;;;;;;6264994;22;20057;-57
2022/11/19 10:18:04;;;;;;;7.30;4.97;;;1.20;99.90;;;;;;6292618;22;20069;-57
2022/11/19 10:20:48;;;;;;;8.70;4.97;;;1.40;99.90;;;;;;6292653;22;20058;-57
2022/11/19 10:23:31;;;;;;;6.45;4.65;;;1.50;99.90;;;;;;6291275;22;20559;-59
2022/11/19 10:26:10;;;;;;;7.57;4.80;;;1.80;99.90;;;;;;6290061;22;20110;-57
2022/11/19 10:28:39;;;;;;;10.15;5.55;;;1.90;99.90;;;;;;6289895;22;20109;-56
2022/11/19 10:31:20;;;;;;;7.32;4.97;;;2.00;99.90;;;;;;6290570;22;20027;-58
2022/11/19 10:36:28;;;;;;;8.93;5.07;;;2.00;99.90;;;;;;6218383;22;20353;-61
2022/11/19 10:39:18;;;;;;;6.53;4.72;;;2.00;99.90;;;;;;6264407;22;20166;-56
2022/11/19 10:41:47;;;;;;;6.70;5.18;;;2.10;99.90;;;;;;6292900;22;20114;-56
2022/11/19 10:44:47;;;;;;;7.18;4.18;;;2.10;99.90;;;;;;6237491;22;20033;-57
2022/11/19 10:47:21;;;;;;;7.43;4.57;;;2.00;99.90;;;;;;6221808;22;20106;-57
2022/11/19 10:49:52;;;;;;;6.40;4.35;;;2.00;99.90;;;;;;6294572;22;20103;-55
2022/11/19 10:52:41;;;;;;;8.70;5.75;;;2.20;99.90;;;;;;6295021;22;20085;-56
2022/11/19 10:55:26;;;;;;;7.78;4.90;;;2.60;99.90;;;;;;6294176;22;20058;-56
2022/11/19 10:58:20;;;;;;;6.93;4.82;;;2.20;99.90;;;;;;6293814;22;20043;-56
2022/11/19 11:00:47;;;;;;;5.97;3.97;;;2.50;99.90;;;;;;6294464;22;20023;-56
2022/11/19 11:06:13;;;;;;;7.45;4.47;;;2.40;99.90;;;;;;6137871;22;20045;-56
2022/11/19 11:08:48;;;;;;;7.18;4.63;;;2.40;99.90;;;;;;6280925;22;20318;-57
2022/11/19 11:11:23;;;;;;;6.65;5.07;;;2.50;99.90;;;;;;6289700;22;20046;-57
2022/11/19 11:16:43;;;;;;;;;;;3.10;99.90;;;;;;6292014;22;20102;-57
2022/11/19 11:19:28;;;;;;;7.90;4.35;;;2.90;99.90;;;;;;6291015;22;19919;-57
2022/11/19 11:21:56;;;;;;;6.32;4.25;;;2.80;99.90;;;;;;6290777;22;20027;-57
2022/11/19 11:24:33;;;;;;;6.53;4.63;;;2.80;99.90;;;;;;6263517;22;20031;-57
2022/11/19 11:27:29;;;;;;;7.00;4.70;;;2.90;99.90;;;;;;6291486;22;20070;-56
2022/11/19 11:30:11;;;;;;;4.88;3.72;;;2.80;99.90;;;;;;6290042;22;20035;-57
2022/11/19 11:32:37;;;;;;;6.57;4.38;;;3.10;99.90;;;;;;6288194;22;20035;-57
2022/11/19 11:35:05;;;;;;;4.78;3.55;;;3.00;99.90;;;;;;6286534;22;20465;-57
2022/11/19 11:37:31;;;;;;;7.53;4.20;;;3.00;99.90;;;;;;6288546;22;20784;-57
2022/11/19 11:39:58;;;;;;;5.70;3.80;;;3.00;99.90;;;;;;6260139;22;20015;-57
2022/11/19 11:42:27;;;;;;;6.43;3.78;;;3.00;99.90;;;;;;6290051;22;20023;-57
2022/11/19 11:44:59;;;;;;;4.32;3.05;;;3.10;99.90;;;;;;6290029;22;20030;-57
2022/11/19 11:47:29;;;;;;;5.60;3.60;;;3.10;99.90;;;;;;6290276;22;20034;-56
2022/11/19 11:50:10;;;;;;;5.60;3.78;;;3.20;99.90;;;;;;6290770;22;20389;-56
2022/11/19 11:52:47;;;;;;;5.70;3.53;;;3.10;99.90;;;;;;6289203;22;20031;-57
2022/11/19 11:55:28;;;;;;;3.88;2.75;;;3.20;99.90;;;;;;6229799;22;20466;-57
2022/11/19 11:57:55;;;;;;;5.03;3.97;;;4.30;99.90;;;;;;6288589;22;20043;-57
2022/11/19 12:00:47;;;;;;;4.82;3.50;;;3.30;99.90;;;;;;6289525;22;20015;-57
2022/11/19 12:03:17;;;;;;;5.35;3.72;;;3.30;99.90;;;;;;6229552;22;20353;-57
2022/11/19 12:05:47;;;;;;;4.85;3.60;;;3.30;99.90;;;;;;6287754;22;20030;-57
2022/11/19 12:08:47;;;;;;;4.95;2.97;;;3.40;99.90;;;;;;6277762;22;20030;-57
2022/11/19 12:11:52;;;;;;;5.35;3.38;;;3.40;99.90;;;;;;6277036;22;20113;-57
2022/11/19 12:14:10;;;;;;;11.18;4.25;;;3.30;99.90;;;;;;6290486;22;20045;-56
2022/11/19 12:16:47;;;;;;;6.10;3.42;;;3.50;99.90;;;;;;6290575;22;20094;-57
2022/11/19 12:22:38;;;;;;;5.97;3.53;;;3.70;99.90;;;;;;6220221;22;20029;-57
2022/11/19 12:25:28;;;;;;;4.55;2.60;;;3.80;99.90;;;;;;6290561;22;20587;-57
2022/11/19 12:27:54;;;;;;;5.32;2.92;;;3.80;99.90;;;;;;6241372;22;1113995;-57
2022/11/19 12:30:22;;;;;;;5.05;3.20;;;3.90;99.90;;;;;;6289972;22;20575;-56
2022/11/19 12:33:14;;;;;;;19.70;10.98;;;3.90;99.90;;;;;;6290227;22;20027;-57
2022/11/19 12:38:34;;;;;;;10.00;5.05;;;4.00;99.90;;;;;;6279970;22;20031;-57
2022/11/19 12:41:27;;;;;;;13.63;7.63;;;4.50;99.90;;;;;;6266637;22;20073;-57
2022/11/19 12:44:01;;;;;;;9.52;6.15;;;3.90;99.90;;;;;;6285765;22;20433;-57
2022/11/19 12:49:27;;;;;;;5.63;4.93;;;4.00;99.90;;;;;;6273037;22;20076;-57
2022/11/19 12:52:34;;;;;;;4.78;3.80;;;4.00;99.90;;;;;;6289705;22;20358;-57
2022/11/19 12:55:03;;;;;;;5.85;3.78;;;4.20;99.90;;;;;;6286779;22;20027;-57
2022/11/19 12:57:47;;;;;;;9.93;6.13;;;4.20;99.90;;;;;;6284953;22;20030;-57
2022/11/19 13:00:13;;;;;;;;;;;4.10;99.90;;;;;;6286294;22;20027;-57
2022/11/19 13:02:47;;;;;;;4.55;3.17;;;4.40;99.90;;;;;;6286258;22;19949;-57
2022/11/19 13:05:18;;;;;;;4.53;3.15;;;4.10;99.90;;;;;;6254406;22;20102;-63
2022/11/19 13:07:56;;;;;;;5.63;3.50;;;4.10;99.90;;;;;;6255447;22;20030;-55
2022/11/19 13:10:24;;;;;;;7.75;3.70;;;4.20;99.90;;;;;;6261686;22;20027;-59
2022/11/19 13:12:53;;;;;;;6.13;3.35;;;4.20;99.90;;;;;;6287008;22;20106;-59
2022/11/19 13:15:29;;;;;;;4.75;3.08;;;4.30;99.90;;;;;;6286543;22;20450;-58
2022/11/19 13:17:58;;;;;;;6.72;3.50;;;4.30;99.90;;;;;;6286458;22;20512;-60
2022/11/19 13:20:39;;;;;;;5.35;3.35;;;4.50;99.90;;;;;;6288674;22;20144;-58
2022/11/19 13:23:08;;;;;;;7.82;3.58;;;4.60;99.90;;;;;;6289459;22;20554;-59
2022/11/19 13:25:47;;;;;;;6.75;3.38;;;5.10;99.90;;;;;;6233647;22;20022;-61
2022/11/19 13:28:42;;;;;;;7.95;4.25;;;4.70;99.90;;;;;;6224651;22;20071;-60
2022/11/19 13:31:27;;;;;;;4.63;3.67;;;4.60;99.90;;;;;;6285034;22;20019;-59
2022/11/19 13:33:57;;;;;;;;;;;4.60;99.90;;;;;;6290337;22;20470;-57
2022/11/19 13:36:40;;;;;;;5.85;3.58;;;4.40;99.90;;;;;;6291043;22;19972;-59
2022/11/19 13:39:18;;;;;;;5.68;3.95;;;4.30;99.90;;;;;;6263515;22;20371;-60
2022/11/19 13:44:40;;;;;;;4.63;3.47;;;4.10;99.90;;;;;;6290226;22;20349;-60
2022/11/19 13:47:21;;;;;;;7.05;4.22;;;3.90;99.90;;;;;;6262750;22;20077;-57
2022/11/19 13:50:00;;;;;;;4.63;3.42;;;4.00;99.90;;;;;;6290149;22;20425;-60
2022/11/19 13:52:43;;;;;;;5.78;3.45;;;3.90;99.90;;;;;;6290784;22;20034;-59
2022/11/19 13:55:32;;;;;;;6.97;3.65;;;3.80;99.90;;;;;;6289861;22;20054;-58
2022/11/19 13:58:09;;;;;;;6.15;3.70;;;3.80;99.90;;;;;;6288955;22;20352;-60
2022/11/19 14:00:35;;;;;;;9.18;3.03;;;3.60;99.90;;;;;;6283403;22;20023;-57